sensor_id;sensor_type;location;lat;lon;timestamp;P1;durP1;ratioP1;P2;durP2;ratioP2
3083;SDS011;1552;51.952;7.618;2022-12-18T00:01:46;65.50;;;25.77;;
3083;SDS011;1552;51.952;7.618;2022-12-18T00:04:14;63.70;;;26.93;;
3083;SDS011;1552;51.952;7.618;2022-12-18T00:06:42;58.00;;;28.00;;
3083;SDS011;1552;51.952;7.618;2022-12-18T00:09:08;58.33;;;23.90;;
3083;SDS011;1552;51.952;7.618;2022-12-18T00:11:36;62.97;;;25.77;;
3083;SDS011;1552;51.952;7.618;2022-12-18T00:14:02;58.70;;;26.07;;
3083;SDS011;1552;51.952;7.618;2022-12-18T00:16:29;56.43;;;25.00;;
3083;SDS011;1552;51.952;7.618;2022-12-18T00:18:59;68.13;;;28.40;;
3083;SDS011;1552;51.952;7.618;2022-12-18T00:21:28;68.10;;;25.97;;
3083;SDS011;1552;51.952;7.618;2022-12-18T00:23:55;61.03;;;26.63;;
3083;SDS011;1552;51.952;7.618;2022-12-18T00:26:22;59.77;;;26.50;;
3083;SDS011;1552;51.952;7.618;2022-12-18T00:28:50;65.60;;;27.97;;
3083;SDS011;1552;51.952;7.618;2022-12-18T00:31:18;60.87;;;28.10;;
3083;SDS011;1552;51.952;7.618;2022-12-18T00:33:44;54.33;;;26.27;;
3083;SDS011;1552;51.952;7.618;2022-12-18T00:36:11;58.73;;;26.37;;
3083;SDS011;1552;51.952;7.618;2022-12-18T00:38:38;60.47;;;26.50;;
3083;SDS011;1552;51.952;7.618;2022-12-18T00:41:05;58.77;;;25.87;;
3083;SDS011;1552;51.952;7.618;2022-12-18T00:43:31;63.60;;;27.87;;
3083;SDS011;1552;51.952;7.618;2022-12-18T00:45:58;56.50;;;27.03;;
3083;SDS011;1552;51.952;7.618;2022-12-18T00:48:24;58.40;;;26.90;;
3083;SDS011;1552;51.952;7.618;2022-12-18T00:50:51;62.37;;;27.03;;
3083;SDS011;1552;51.952;7.618;2022-12-18T00:53:18;63.90;;;26.70;;
3083;SDS011;1552;51.952;7.618;2022-12-18T00:55:45;63.07;;;26.70;;
3083;SDS011;1552;51.952;7.618;2022-12-18T00:58:11;61.27;;;26.47;;
3083;SDS011;1552;51.952;7.618;2022-12-18T01:00:38;62.53;;;28.20;;
3083;SDS011;1552;51.952;7.618;2022-12-18T01:03:06;61.83;;;26.83;;
3083;SDS011;1552;51.952;7.618;2022-12-18T01:05:32;57.17;;;25.33;;
3083;SDS011;1552;51.952;7.618;2022-12-18T01:07:59;54.43;;;25.60;;
3083;SDS011;1552;51.952;7.618;2022-12-18T01:10:25;56.77;;;24.87;;
3083;SDS011;1552;51.952;7.618;2022-12-18T01:12:51;59.90;;;26.30;;
3083;SDS011;1552;51.952;7.618;2022-12-18T01:15:18;58.30;;;25.97;;
3083;SDS011;1552;51.952;7.618;2022-12-18T01:17:45;60.23;;;27.63;;
3083;SDS011;1552;51.952;7.618;2022-12-18T01:20:12;62.00;;;27.67;;
3083;SDS011;1552;51.952;7.618;2022-12-18T01:22:39;55.70;;;25.90;;
3083;SDS011;1552;51.952;7.618;2022-12-18T01:25:05;51.97;;;25.87;;
3083;SDS011;1552;51.952;7.618;2022-12-18T01:27:33;59.17;;;25.63;;
3083;SDS011;1552;51.952;7.618;2022-12-18T01:29:59;65.10;;;26.80;;
3083;SDS011;1552;51.952;7.618;2022-12-18T01:32:26;56.67;;;26.50;;
3083;SDS011;1552;51.952;7.618;2022-12-18T01:34:53;58.87;;;25.70;;
3083;SDS011;1552;51.952;7.618;2022-12-18T01:37:21;54.53;;;25.43;;
3083;SDS011;1552;51.952;7.618;2022-12-18T01:39:47;57.33;;;25.43;;
3083;SDS011;1552;51.952;7.618;2022-12-18T01:42:15;51.33;;;24.00;;
3083;SDS011;1552;51.952;7.618;2022-12-18T01:44:58;53.43;;;23.60;;
3083;SDS011;1552;51.952;7.618;2022-12-18T01:47:26;52.93;;;24.43;;
3083;SDS011;1552;51.952;7.618;2022-12-18T01:49:55;57.73;;;24.50;;
3083;SDS011;1552;51.952;7.618;2022-12-18T01:52:24;50.90;;;23.10;;
3083;SDS011;1552;51.952;7.618;2022-12-18T01:54:51;57.00;;;25.17;;
3083;SDS011;1552;51.952;7.618;2022-12-18T01:57:18;56.17;;;24.67;;
3083;SDS011;1552;51.952;7.618;2022-12-18T01:59:45;56.23;;;25.07;;
3083;SDS011;1552;51.952;7.618;2022-12-18T02:02:13;51.40;;;23.80;;
3083;SDS011;1552;51.952;7.618;2022-12-18T02:04:39;60.80;;;25.63;;
3083;SDS011;1552;51.952;7.618;2022-12-18T02:07:07;53.03;;;24.87;;
3083;SDS011;1552;51.952;7.618;2022-12-18T02:09:39;51.87;;;23.27;;
3083;SDS011;1552;51.952;7.618;2022-12-18T02:12:09;65.93;;;27.53;;
3083;SDS011;1552;51.952;7.618;2022-12-18T02:14:40;64.93;;;27.73;;
3083;SDS011;1552;51.952;7.618;2022-12-18T02:17:11;60.03;;;25.97;;
3083;SDS011;1552;51.952;7.618;2022-12-18T02:19:44;60.77;;;25.77;;
3083;SDS011;1552;51.952;7.618;2022-12-18T02:22:17;62.00;;;25.27;;
3083;SDS011;1552;51.952;7.618;2022-12-18T02:24:52;53.97;;;24.30;;
3083;SDS011;1552;51.952;7.618;2022-12-18T02:27:21;54.27;;;25.03;;
3083;SDS011;1552;51.952;7.618;2022-12-18T02:29:48;60.47;;;26.20;;
3083;SDS011;1552;51.952;7.618;2022-12-18T02:32:18;53.43;;;23.97;;
3083;SDS011;1552;51.952;7.618;2022-12-18T02:34:45;55.30;;;25.70;;
3083;SDS011;1552;51.952;7.618;2022-12-18T02:37:13;57.93;;;25.83;;
3083;SDS011;1552;51.952;7.618;2022-12-18T02:39:41;50.20;;;23.20;;
3083;SDS011;1552;51.952;7.618;2022-12-18T02:42:08;61.30;;;26.00;;
3083;SDS011;1552;51.952;7.618;2022-12-18T02:44:43;53.40;;;23.97;;
3083;SDS011;1552;51.952;7.618;2022-12-18T02:47:09;52.00;;;23.37;;
3083;SDS011;1552;51.952;7.618;2022-12-18T02:49:36;56.93;;;24.70;;
3083;SDS011;1552;51.952;7.618;2022-12-18T02:52:07;56.13;;;23.50;;
3083;SDS011;1552;51.952;7.618;2022-12-18T02:54:38;50.90;;;24.27;;
3083;SDS011;1552;51.952;7.618;2022-12-18T02:57:08;54.50;;;23.40;;
3083;SDS011;1552;51.952;7.618;2022-12-18T02:59:39;54.57;;;25.43;;
3083;SDS011;1552;51.952;7.618;2022-12-18T03:02:10;57.80;;;24.03;;
3083;SDS011;1552;51.952;7.618;2022-12-18T03:04:42;56.90;;;23.47;;
3083;SDS011;1552;51.952;7.618;2022-12-18T03:07:10;54.27;;;22.40;;
3083;SDS011;1552;51.952;7.618;2022-12-18T03:09:39;54.63;;;23.23;;
3083;SDS011;1552;51.952;7.618;2022-12-18T03:12:08;49.47;;;23.13;;
3083;SDS011;1552;51.952;7.618;2022-12-18T03:14:52;53.27;;;22.73;;
3083;SDS011;1552;51.952;7.618;2022-12-18T03:17:22;49.80;;;22.57;;
3083;SDS011;1552;51.952;7.618;2022-12-18T03:19:49;49.47;;;22.90;;
3083;SDS011;1552;51.952;7.618;2022-12-18T03:22:17;48.20;;;23.20;;
3083;SDS011;1552;51.952;7.618;2022-12-18T03:24:44;50.33;;;24.67;;
3083;SDS011;1552;51.952;7.618;2022-12-18T03:27:12;48.60;;;23.20;;
3083;SDS011;1552;51.952;7.618;2022-12-18T03:29:42;54.13;;;23.30;;
3083;SDS011;1552;51.952;7.618;2022-12-18T03:32:09;60.80;;;26.37;;
3083;SDS011;1552;51.952;7.618;2022-12-18T03:34:38;51.57;;;23.90;;
3083;SDS011;1552;51.952;7.618;2022-12-18T03:37:05;48.90;;;22.07;;
3083;SDS011;1552;51.952;7.618;2022-12-18T03:39:32;61.27;;;24.83;;
3083;SDS011;1552;51.952;7.618;2022-12-18T03:42:00;54.67;;;23.07;;
3083;SDS011;1552;51.952;7.618;2022-12-18T03:44:29;50.57;;;23.80;;
3083;SDS011;1552;51.952;7.618;2022-12-18T03:46:58;51.77;;;23.33;;
3083;SDS011;1552;51.952;7.618;2022-12-18T03:49:27;49.47;;;21.80;;
3083;SDS011;1552;51.952;7.618;2022-12-18T03:52:01;50.97;;;23.10;;
3083;SDS011;1552;51.952;7.618;2022-12-18T03:54:27;48.47;;;20.97;;
3083;SDS011;1552;51.952;7.618;2022-12-18T03:56:58;43.77;;;19.67;;
3083;SDS011;1552;51.952;7.618;2022-12-18T03:59:25;46.60;;;20.47;;
3083;SDS011;1552;51.952;7.618;2022-12-18T04:01:53;46.77;;;20.80;;
3083;SDS011;1552;51.952;7.618;2022-12-18T04:04:21;42.60;;;20.50;;
3083;SDS011;1552;51.952;7.618;2022-12-18T04:06:48;45.13;;;20.30;;
3083;SDS011;1552;51.952;7.618;2022-12-18T04:09:17;48.63;;;20.33;;
3083;SDS011;1552;51.952;7.618;2022-12-18T04:11:43;44.53;;;19.40;;
3083;SDS011;1552;51.952;7.618;2022-12-18T04:14:10;39.40;;;18.07;;
3083;SDS011;1552;51.952;7.618;2022-12-18T04:16:37;49.87;;;21.63;;
3083;SDS011;1552;51.952;7.618;2022-12-18T04:19:03;45.07;;;20.77;;
3083;SDS011;1552;51.952;7.618;2022-12-18T04:21:29;50.20;;;21.00;;
3083;SDS011;1552;51.952;7.618;2022-12-18T04:23:56;46.33;;;20.07;;
3083;SDS011;1552;51.952;7.618;2022-12-18T04:26:24;39.80;;;19.40;;
3083;SDS011;1552;51.952;7.618;2022-12-18T04:28:51;41.17;;;19.23;;
3083;SDS011;1552;51.952;7.618;2022-12-18T04:31:17;42.97;;;19.30;;
3083;SDS011;1552;51.952;7.618;2022-12-18T04:33:43;46.13;;;20.63;;
3083;SDS011;1552;51.952;7.618;2022-12-18T04:36:10;40.67;;;17.23;;
3083;SDS011;1552;51.952;7.618;2022-12-18T04:38:37;39.93;;;18.53;;
3083;SDS011;1552;51.952;7.618;2022-12-18T04:41:03;38.27;;;18.43;;
3083;SDS011;1552;51.952;7.618;2022-12-18T04:43:31;45.83;;;20.17;;
3083;SDS011;1552;51.952;7.618;2022-12-18T04:46:03;34.33;;;16.87;;
3083;SDS011;1552;51.952;7.618;2022-12-18T04:48:29;36.53;;;17.80;;
3083;SDS011;1552;51.952;7.618;2022-12-18T04:50:56;34.30;;;17.63;;
3083;SDS011;1552;51.952;7.618;2022-12-18T04:53:22;35.47;;;17.77;;
3083;SDS011;1552;51.952;7.618;2022-12-18T04:55:48;36.30;;;17.87;;
3083;SDS011;1552;51.952;7.618;2022-12-18T04:58:15;39.40;;;18.80;;
3083;SDS011;1552;51.952;7.618;2022-12-18T05:00:42;36.70;;;15.73;;
3083;SDS011;1552;51.952;7.618;2022-12-18T05:03:09;36.53;;;16.60;;
3083;SDS011;1552;51.952;7.618;2022-12-18T05:05:35;34.43;;;16.30;;
3083;SDS011;1552;51.952;7.618;2022-12-18T05:08:02;31.10;;;16.13;;
3083;SDS011;1552;51.952;7.618;2022-12-18T05:10:28;36.00;;;16.37;;
3083;SDS011;1552;51.952;7.618;2022-12-18T05:12:54;30.83;;;15.40;;
3083;SDS011;1552;51.952;7.618;2022-12-18T05:15:27;34.60;;;15.53;;
3083;SDS011;1552;51.952;7.618;2022-12-18T05:17:56;31.00;;;15.10;;
3083;SDS011;1552;51.952;7.618;2022-12-18T05:20:23;34.13;;;15.87;;
3083;SDS011;1552;51.952;7.618;2022-12-18T05:22:49;37.77;;;17.17;;
3083;SDS011;1552;51.952;7.618;2022-12-18T05:25:16;30.00;;;16.07;;
3083;SDS011;1552;51.952;7.618;2022-12-18T05:27:43;31.97;;;14.53;;
3083;SDS011;1552;51.952;7.618;2022-12-18T05:30:10;33.43;;;15.40;;
3083;SDS011;1552;51.952;7.618;2022-12-18T05:32:36;36.73;;;15.73;;
3083;SDS011;1552;51.952;7.618;2022-12-18T05:35:06;35.60;;;16.73;;
3083;SDS011;1552;51.952;7.618;2022-12-18T05:37:32;31.83;;;15.87;;
3083;SDS011;1552;51.952;7.618;2022-12-18T05:39:59;29.83;;;15.17;;
3083;SDS011;1552;51.952;7.618;2022-12-18T05:42:25;31.90;;;15.63;;
3083;SDS011;1552;51.952;7.618;2022-12-18T05:44:51;32.10;;;16.37;;
3083;SDS011;1552;51.952;7.618;2022-12-18T05:47:18;35.63;;;15.53;;
3083;SDS011;1552;51.952;7.618;2022-12-18T05:49:45;30.83;;;14.93;;
3083;SDS011;1552;51.952;7.618;2022-12-18T05:52:13;29.00;;;14.47;;
3083;SDS011;1552;51.952;7.618;2022-12-18T05:54:39;31.40;;;16.03;;
3083;SDS011;1552;51.952;7.618;2022-12-18T05:57:07;32.47;;;15.23;;
3083;SDS011;1552;51.952;7.618;2022-12-18T05:59:33;30.63;;;15.23;;
3083;SDS011;1552;51.952;7.618;2022-12-18T06:02:00;32.35;;;16.13;;
3083;SDS011;1552;51.952;7.618;2022-12-18T06:04:26;30.23;;;14.40;;
3083;SDS011;1552;51.952;7.618;2022-12-18T06:06:57;32.30;;;15.40;;
3083;SDS011;1552;51.952;7.618;2022-12-18T06:09:25;35.83;;;15.63;;
3083;SDS011;1552;51.952;7.618;2022-12-18T06:11:51;28.70;;;13.93;;
3083;SDS011;1552;51.952;7.618;2022-12-18T06:14:18;30.13;;;14.27;;
3083;SDS011;1552;51.952;7.618;2022-12-18T06:16:44;33.93;;;14.00;;
3083;SDS011;1552;51.952;7.618;2022-12-18T06:19:13;36.67;;;17.33;;
3083;SDS011;1552;51.952;7.618;2022-12-18T06:21:40;39.80;;;18.40;;
3083;SDS011;1552;51.952;7.618;2022-12-18T06:24:06;29.83;;;15.23;;
3083;SDS011;1552;51.952;7.618;2022-12-18T06:26:36;28.40;;;14.17;;
3083;SDS011;1552;51.952;7.618;2022-12-18T06:29:02;32.77;;;16.13;;
3083;SDS011;1552;51.952;7.618;2022-12-18T06:31:28;36.47;;;17.20;;
3083;SDS011;1552;51.952;7.618;2022-12-18T06:33:55;31.27;;;14.97;;
3083;SDS011;1552;51.952;7.618;2022-12-18T06:36:21;34.80;;;16.17;;
3083;SDS011;1552;51.952;7.618;2022-12-18T06:38:48;24.20;;;12.70;;
3083;SDS011;1552;51.952;7.618;2022-12-18T06:41:15;27.90;;;13.37;;
3083;SDS011;1552;51.952;7.618;2022-12-18T06:43:43;29.37;;;12.67;;
3083;SDS011;1552;51.952;7.618;2022-12-18T06:46:10;29.80;;;13.93;;
3083;SDS011;1552;51.952;7.618;2022-12-18T06:48:36;28.17;;;13.47;;
3083;SDS011;1552;51.952;7.618;2022-12-18T06:51:03;26.03;;;12.13;;
3083;SDS011;1552;51.952;7.618;2022-12-18T06:53:29;23.30;;;12.67;;
3083;SDS011;1552;51.952;7.618;2022-12-18T06:55:59;27.90;;;13.07;;
3083;SDS011;1552;51.952;7.618;2022-12-18T06:58:26;28.00;;;11.97;;
3083;SDS011;1552;51.952;7.618;2022-12-18T07:00:54;23.77;;;11.57;;
3083;SDS011;1552;51.952;7.618;2022-12-18T07:03:25;23.83;;;13.17;;
3083;SDS011;1552;51.952;7.618;2022-12-18T07:05:57;25.27;;;12.27;;
3083;SDS011;1552;51.952;7.618;2022-12-18T07:08:23;23.17;;;12.70;;
3083;SDS011;1552;51.952;7.618;2022-12-18T07:10:50;22.93;;;12.40;;
3083;SDS011;1552;51.952;7.618;2022-12-18T07:13:16;23.63;;;12.27;;
3083;SDS011;1552;51.952;7.618;2022-12-18T07:15:43;24.23;;;13.27;;
3083;SDS011;1552;51.952;7.618;2022-12-18T07:18:11;23.97;;;11.13;;
3083;SDS011;1552;51.952;7.618;2022-12-18T07:20:37;23.37;;;11.80;;
3083;SDS011;1552;51.952;7.618;2022-12-18T07:23:04;22.40;;;11.50;;
3083;SDS011;1552;51.952;7.618;2022-12-18T07:25:33;26.23;;;12.63;;
3083;SDS011;1552;51.952;7.618;2022-12-18T07:27:59;26.27;;;12.07;;
3083;SDS011;1552;51.952;7.618;2022-12-18T07:30:25;24.63;;;11.67;;
3083;SDS011;1552;51.952;7.618;2022-12-18T07:32:52;27.17;;;12.80;;
3083;SDS011;1552;51.952;7.618;2022-12-18T07:35:19;23.60;;;12.63;;
3083;SDS011;1552;51.952;7.618;2022-12-18T07:37:46;26.17;;;10.60;;
3083;SDS011;1552;51.952;7.618;2022-12-18T07:40:12;18.33;;;11.17;;
3083;SDS011;1552;51.952;7.618;2022-12-18T07:42:39;18.40;;;10.93;;
3083;SDS011;1552;51.952;7.618;2022-12-18T07:45:05;23.47;;;11.83;;
3083;SDS011;1552;51.952;7.618;2022-12-18T07:47:33;24.30;;;12.27;;
3083;SDS011;1552;51.952;7.618;2022-12-18T07:50:00;25.07;;;12.20;;
3083;SDS011;1552;51.952;7.618;2022-12-18T07:52:27;20.67;;;10.87;;
3083;SDS011;1552;51.952;7.618;2022-12-18T07:54:54;16.27;;;9.70;;
3083;SDS011;1552;51.952;7.618;2022-12-18T07:57:20;19.97;;;11.23;;
3083;SDS011;1552;51.952;7.618;2022-12-18T07:59:47;16.10;;;10.40;;
3083;SDS011;1552;51.952;7.618;2022-12-18T08:02:13;20.17;;;10.70;;
3083;SDS011;1552;51.952;7.618;2022-12-18T08:04:40;22.00;;;10.37;;
3083;SDS011;1552;51.952;7.618;2022-12-18T08:07:06;22.57;;;10.63;;
3083;SDS011;1552;51.952;7.618;2022-12-18T08:09:34;19.63;;;9.73;;
3083;SDS011;1552;51.952;7.618;2022-12-18T08:12:00;19.93;;;10.37;;
3083;SDS011;1552;51.952;7.618;2022-12-18T08:14:26;19.80;;;9.23;;
3083;SDS011;1552;51.952;7.618;2022-12-18T08:16:53;17.33;;;9.00;;
3083;SDS011;1552;51.952;7.618;2022-12-18T08:19:19;20.83;;;10.67;;
3083;SDS011;1552;51.952;7.618;2022-12-18T08:21:48;16.97;;;10.33;;
3083;SDS011;1552;51.952;7.618;2022-12-18T08:24:14;17.37;;;9.97;;
3083;SDS011;1552;51.952;7.618;2022-12-18T08:26:42;21.77;;;10.60;;
3083;SDS011;1552;51.952;7.618;2022-12-18T08:29:08;20.50;;;10.37;;
3083;SDS011;1552;51.952;7.618;2022-12-18T08:31:34;18.23;;;9.50;;
3083;SDS011;1552;51.952;7.618;2022-12-18T08:34:01;16.33;;;8.87;;
3083;SDS011;1552;51.952;7.618;2022-12-18T08:36:27;18.57;;;9.73;;
3083;SDS011;1552;51.952;7.618;2022-12-18T08:38:53;19.97;;;9.97;;
3083;SDS011;1552;51.952;7.618;2022-12-18T08:41:20;26.60;;;11.00;;
3083;SDS011;1552;51.952;7.618;2022-12-18T08:43:49;17.83;;;9.03;;
3083;SDS011;1552;51.952;7.618;2022-12-18T08:46:34;16.37;;;9.87;;
3083;SDS011;1552;51.952;7.618;2022-12-18T08:49:00;17.83;;;9.93;;
3083;SDS011;1552;51.952;7.618;2022-12-18T08:51:28;21.77;;;9.47;;
3083;SDS011;1552;51.952;7.618;2022-12-18T08:53:54;18.77;;;9.70;;
3083;SDS011;1552;51.952;7.618;2022-12-18T08:56:20;20.00;;;9.07;;
3083;SDS011;1552;51.952;7.618;2022-12-18T08:58:50;16.00;;;8.83;;
3083;SDS011;1552;51.952;7.618;2022-12-18T09:01:16;13.33;;;8.27;;
3083;SDS011;1552;51.952;7.618;2022-12-18T09:03:43;18.10;;;9.70;;
3083;SDS011;1552;51.952;7.618;2022-12-18T09:06:12;18.97;;;9.73;;
3083;SDS011;1552;51.952;7.618;2022-12-18T09:08:39;17.63;;;8.73;;
3083;SDS011;1552;51.952;7.618;2022-12-18T09:11:09;15.20;;;8.90;;
3083;SDS011;1552;51.952;7.618;2022-12-18T09:13:36;17.67;;;9.27;;
3083;SDS011;1552;51.952;7.618;2022-12-18T09:16:04;14.47;;;9.10;;
3083;SDS011;1552;51.952;7.618;2022-12-18T09:18:31;13.67;;;7.83;;
3083;SDS011;1552;51.952;7.618;2022-12-18T09:20:57;16.77;;;9.17;;
3083;SDS011;1552;51.952;7.618;2022-12-18T09:23:24;19.53;;;9.63;;
3083;SDS011;1552;51.952;7.618;2022-12-18T09:25:51;16.77;;;9.87;;
3083;SDS011;1552;51.952;7.618;2022-12-18T09:28:23;16.73;;;8.53;;
3083;SDS011;1552;51.952;7.618;2022-12-18T09:30:50;15.90;;;9.10;;
3083;SDS011;1552;51.952;7.618;2022-12-18T09:33:17;19.70;;;9.73;;
3083;SDS011;1552;51.952;7.618;2022-12-18T09:35:45;15.23;;;8.73;;
3083;SDS011;1552;51.952;7.618;2022-12-18T09:38:12;19.63;;;8.80;;
3083;SDS011;1552;51.952;7.618;2022-12-18T09:40:40;15.23;;;8.90;;
3083;SDS011;1552;51.952;7.618;2022-12-18T09:43:09;18.30;;;9.07;;
3083;SDS011;1552;51.952;7.618;2022-12-18T09:45:40;15.83;;;8.50;;
3083;SDS011;1552;51.952;7.618;2022-12-18T09:48:08;13.37;;;9.20;;
3083;SDS011;1552;51.952;7.618;2022-12-18T09:50:38;15.50;;;9.23;;
3083;SDS011;1552;51.952;7.618;2022-12-18T09:53:05;18.50;;;9.27;;
3083;SDS011;1552;51.952;7.618;2022-12-18T09:55:33;16.37;;;9.23;;
3083;SDS011;1552;51.952;7.618;2022-12-18T09:58:02;16.27;;;8.90;;
3083;SDS011;1552;51.952;7.618;2022-12-18T10:00:29;17.27;;;8.90;;
3083;SDS011;1552;51.952;7.618;2022-12-18T10:02:56;14.83;;;8.80;;
3083;SDS011;1552;51.952;7.618;2022-12-18T10:05:26;16.70;;;8.57;;
3083;SDS011;1552;51.952;7.618;2022-12-18T10:07:58;15.73;;;9.27;;
3083;SDS011;1552;51.952;7.618;2022-12-18T10:10:32;21.00;;;10.50;;
3083;SDS011;1552;51.952;7.618;2022-12-18T10:13:02;17.30;;;9.07;;
3083;SDS011;1552;51.952;7.618;2022-12-18T10:15:30;17.80;;;9.53;;
3083;SDS011;1552;51.952;7.618;2022-12-18T10:18:02;19.83;;;9.40;;
3083;SDS011;1552;51.952;7.618;2022-12-18T10:20:33;20.47;;;9.70;;
3083;SDS011;1552;51.952;7.618;2022-12-18T10:23:10;20.30;;;11.13;;
3083;SDS011;1552;51.952;7.618;2022-12-18T10:25:41;16.67;;;9.67;;
3083;SDS011;1552;51.952;7.618;2022-12-18T10:28:10;16.13;;;8.57;;
3083;SDS011;1552;51.952;7.618;2022-12-18T10:30:37;15.23;;;8.27;;
3083;SDS011;1552;51.952;7.618;2022-12-18T10:33:04;15.33;;;8.17;;
3083;SDS011;1552;51.952;7.618;2022-12-18T10:35:31;18.50;;;9.00;;
3083;SDS011;1552;51.952;7.618;2022-12-18T10:38:07;18.73;;;8.57;;
3083;SDS011;1552;51.952;7.618;2022-12-18T10:40:51;15.27;;;8.47;;
3083;SDS011;1552;51.952;7.618;2022-12-18T10:43:20;15.60;;;8.50;;
3083;SDS011;1552;51.952;7.618;2022-12-18T10:45:57;19.23;;;8.70;;
3083;SDS011;1552;51.952;7.618;2022-12-18T10:48:24;17.90;;;8.47;;
3083;SDS011;1552;51.952;7.618;2022-12-18T10:50:50;16.97;;;8.20;;
3083;SDS011;1552;51.952;7.618;2022-12-18T10:53:18;12.57;;;8.37;;
3083;SDS011;1552;51.952;7.618;2022-12-18T10:55:46;15.13;;;7.97;;
3083;SDS011;1552;51.952;7.618;2022-12-18T10:58:19;16.93;;;8.27;;
3083;SDS011;1552;51.952;7.618;2022-12-18T11:01:01;19.13;;;8.97;;
3083;SDS011;1552;51.952;7.618;2022-12-18T11:03:30;15.37;;;8.80;;
3083;SDS011;1552;51.952;7.618;2022-12-18T11:06:05;15.57;;;8.60;;
3083;SDS011;1552;51.952;7.618;2022-12-18T11:08:31;14.73;;;8.47;;
3083;SDS011;1552;51.952;7.618;2022-12-18T11:10:58;12.87;;;8.43;;
3083;SDS011;1552;51.952;7.618;2022-12-18T11:13:26;17.23;;;10.23;;
3083;SDS011;1552;51.952;7.618;2022-12-18T11:15:53;16.77;;;8.80;;
3083;SDS011;1552;51.952;7.618;2022-12-18T11:18:21;17.43;;;8.77;;
3083;SDS011;1552;51.952;7.618;2022-12-18T11:20:52;18.73;;;9.23;;
3083;SDS011;1552;51.952;7.618;2022-12-18T11:23:18;14.63;;;9.03;;
3083;SDS011;1552;51.952;7.618;2022-12-18T11:25:50;15.33;;;9.33;;
3083;SDS011;1552;51.952;7.618;2022-12-18T11:28:29;18.33;;;10.47;;
3083;SDS011;1552;51.952;7.618;2022-12-18T11:33:44;17.30;;;8.77;;
3083;SDS011;1552;51.952;7.618;2022-12-18T11:36:12;18.53;;;9.80;;
3083;SDS011;1552;51.952;7.618;2022-12-18T11:38:40;14.97;;;9.20;;
3083;SDS011;1552;51.952;7.618;2022-12-18T11:41:11;17.87;;;9.93;;
3083;SDS011;1552;51.952;7.618;2022-12-18T11:43:44;16.53;;;9.67;;
3083;SDS011;1552;51.952;7.618;2022-12-18T11:46:17;16.70;;;9.37;;
3083;SDS011;1552;51.952;7.618;2022-12-18T11:48:45;17.93;;;10.20;;
3083;SDS011;1552;51.952;7.618;2022-12-18T11:51:14;15.17;;;9.00;;
3083;SDS011;1552;51.952;7.618;2022-12-18T11:53:43;15.93;;;8.87;;
3083;SDS011;1552;51.952;7.618;2022-12-18T11:56:16;16.30;;;9.70;;
3083;SDS011;1552;51.952;7.618;2022-12-18T11:58:47;20.83;;;10.53;;
3083;SDS011;1552;51.952;7.618;2022-12-18T12:01:18;18.07;;;10.17;;
3083;SDS011;1552;51.952;7.618;2022-12-18T12:06:31;19.87;;;11.23;;
3083;SDS011;1552;51.952;7.618;2022-12-18T12:09:04;18.23;;;10.67;;
3083;SDS011;1552;51.952;7.618;2022-12-18T12:11:35;22.30;;;10.07;;
3083;SDS011;1552;51.952;7.618;2022-12-18T12:16:48;19.97;;;10.83;;
3083;SDS011;1552;51.952;7.618;2022-12-18T12:19:21;18.93;;;10.00;;
3083;SDS011;1552;51.952;7.618;2022-12-18T12:21:52;18.17;;;9.73;;
3083;SDS011;1552;51.952;7.618;2022-12-18T12:24:26;20.20;;;10.20;;
3083;SDS011;1552;51.952;7.618;2022-12-18T12:26:56;20.60;;;9.53;;
3083;SDS011;1552;51.952;7.618;2022-12-18T12:29:28;17.83;;;10.07;;
3083;SDS011;1552;51.952;7.618;2022-12-18T12:32:04;18.30;;;9.97;;
3083;SDS011;1552;51.952;7.618;2022-12-18T12:34:34;17.07;;;9.43;;
3083;SDS011;1552;51.952;7.618;2022-12-18T12:37:06;16.63;;;9.40;;
3083;SDS011;1552;51.952;7.618;2022-12-18T12:39:38;17.33;;;9.13;;
3083;SDS011;1552;51.952;7.618;2022-12-18T12:42:08;20.70;;;10.60;;
3083;SDS011;1552;51.952;7.618;2022-12-18T12:44:55;19.23;;;9.37;;
3083;SDS011;1552;51.952;7.618;2022-12-18T12:47:25;26.23;;;13.57;;
3083;SDS011;1552;51.952;7.618;2022-12-18T12:49:52;27.63;;;14.60;;
3083;SDS011;1552;51.952;7.618;2022-12-18T12:52:25;19.83;;;10.63;;
3083;SDS011;1552;51.952;7.618;2022-12-18T12:54:53;20.47;;;10.87;;
3083;SDS011;1552;51.952;7.618;2022-12-18T12:57:21;16.33;;;9.90;;
3083;SDS011;1552;51.952;7.618;2022-12-18T12:59:52;20.20;;;10.03;;
3083;SDS011;1552;51.952;7.618;2022-12-18T13:02:31;15.73;;;9.50;;
3083;SDS011;1552;51.952;7.618;2022-12-18T13:05:01;18.80;;;9.40;;
3083;SDS011;1552;51.952;7.618;2022-12-18T13:07:31;16.17;;;9.53;;
3083;SDS011;1552;51.952;7.618;2022-12-18T13:10:13;16.77;;;9.10;;
3083;SDS011;1552;51.952;7.618;2022-12-18T13:12:50;15.83;;;8.90;;
3083;SDS011;1552;51.952;7.618;2022-12-18T13:15:22;20.87;;;9.53;;
3083;SDS011;1552;51.952;7.618;2022-12-18T13:18:03;14.30;;;8.40;;
3083;SDS011;1552;51.952;7.618;2022-12-18T13:20:32;17.93;;;9.37;;
3083;SDS011;1552;51.952;7.618;2022-12-18T13:22:59;17.03;;;8.80;;
3083;SDS011;1552;51.952;7.618;2022-12-18T13:25:29;19.00;;;9.60;;
3083;SDS011;1552;51.952;7.618;2022-12-18T13:28:00;18.80;;;9.53;;
3083;SDS011;1552;51.952;7.618;2022-12-18T13:36:15;15.77;;;8.33;;
3083;SDS011;1552;51.952;7.618;2022-12-18T13:38:42;17.53;;;9.23;;
3083;SDS011;1552;51.952;7.618;2022-12-18T13:41:24;17.37;;;9.53;;
3083;SDS011;1552;51.952;7.618;2022-12-18T13:43:51;16.70;;;8.73;;
3083;SDS011;1552;51.952;7.618;2022-12-18T13:46:19;13.97;;;8.43;;
3083;SDS011;1552;51.952;7.618;2022-12-18T13:51:33;13.97;;;8.30;;
3083;SDS011;1552;51.952;7.618;2022-12-18T13:54:01;16.97;;;10.23;;
3083;SDS011;1552;51.952;7.618;2022-12-18T13:56:29;18.77;;;9.83;;
3083;SDS011;1552;51.952;7.618;2022-12-18T14:01:35;13.37;;;8.87;;
3083;SDS011;1552;51.952;7.618;2022-12-18T14:04:10;14.23;;;8.47;;
3083;SDS011;1552;51.952;7.618;2022-12-18T14:06:38;18.30;;;8.73;;
3083;SDS011;1552;51.952;7.618;2022-12-18T14:09:05;12.67;;;8.27;;
3083;SDS011;1552;51.952;7.618;2022-12-18T14:11:32;16.00;;;9.20;;
3083;SDS011;1552;51.952;7.618;2022-12-18T14:13:58;14.43;;;8.37;;
3083;SDS011;1552;51.952;7.618;2022-12-18T14:16:25;17.50;;;9.73;;
3083;SDS011;1552;51.952;7.618;2022-12-18T14:18:52;13.47;;;8.53;;
3083;SDS011;1552;51.952;7.618;2022-12-18T14:21:21;16.60;;;9.10;;
3083;SDS011;1552;51.952;7.618;2022-12-18T14:23:49;18.17;;;8.83;;
3083;SDS011;1552;51.952;7.618;2022-12-18T14:26:29;16.27;;;8.50;;
3083;SDS011;1552;51.952;7.618;2022-12-18T14:28:56;13.67;;;8.10;;
3083;SDS011;1552;51.952;7.618;2022-12-18T14:31:23;17.33;;;8.70;;
3083;SDS011;1552;51.952;7.618;2022-12-18T14:33:50;13.27;;;8.17;;
3083;SDS011;1552;51.952;7.618;2022-12-18T14:36:18;18.60;;;9.67;;
3083;SDS011;1552;51.952;7.618;2022-12-18T14:38:49;18.90;;;10.20;;
3083;SDS011;1552;51.952;7.618;2022-12-18T14:41:16;18.10;;;9.10;;
3083;SDS011;1552;51.952;7.618;2022-12-18T14:43:44;12.87;;;8.23;;
3083;SDS011;1552;51.952;7.618;2022-12-18T14:46:25;18.43;;;9.93;;
3083;SDS011;1552;51.952;7.618;2022-12-18T14:48:52;16.33;;;8.90;;
3083;SDS011;1552;51.952;7.618;2022-12-18T14:51:19;15.93;;;9.50;;
3083;SDS011;1552;51.952;7.618;2022-12-18T14:53:46;18.47;;;8.57;;
3083;SDS011;1552;51.952;7.618;2022-12-18T14:56:15;14.53;;;7.90;;
3083;SDS011;1552;51.952;7.618;2022-12-18T14:58:46;20.47;;;9.63;;
3083;SDS011;1552;51.952;7.618;2022-12-18T15:01:24;14.43;;;8.83;;
3083;SDS011;1552;51.952;7.618;2022-12-18T15:03:51;15.30;;;9.07;;
3083;SDS011;1552;51.952;7.618;2022-12-18T15:06:21;17.10;;;9.13;;
3083;SDS011;1552;51.952;7.618;2022-12-18T15:08:49;12.47;;;7.97;;
3083;SDS011;1552;51.952;7.618;2022-12-18T15:11:27;15.40;;;8.57;;
3083;SDS011;1552;51.952;7.618;2022-12-18T15:13:54;14.07;;;8.30;;
3083;SDS011;1552;51.952;7.618;2022-12-18T15:16:21;17.70;;;9.40;;
3083;SDS011;1552;51.952;7.618;2022-12-18T15:18:47;19.63;;;10.60;;
3083;SDS011;1552;51.952;7.618;2022-12-18T15:21:16;19.33;;;10.60;;